Time;durP1;ratioP1;P1;durP2;ratioP2;P2;SDS_P1;SDS_P2;PMS_P1;PMS_P2;Temp;Humidity;BMP_temperature;BMP_pressure;BME280_temperature;BME280_humidity;BME280_pressure;Samples;Min_cycle;Max_cycle;Signal;HPM_P1;HPM_P2
2024/01/05 05:31:43;;;;;;;0.10;0.10;;;6.80;85.10;;;;;;5251936;23;20044;-79
2024/01/05 05:34:09;;;;;;;0.10;0.10;;;6.90;85.00;;;;;;4924708;29;21181;-80
2024/01/05 05:36:35;;;;;;;0.10;0.10;;;6.90;84.80;;;;;;4938835;29;20040;-80
2024/01/05 05:39:01;;;;;;;0.20;0.20;;;6.90;84.90;;;;;;4939023;29;20020;-80
2024/01/05 05:41:26;;;;;;;0.10;0.10;;;7.00;84.90;;;;;;4933021;29;20028;-80
2024/01/05 05:43:52;;;;;;;0.08;0.08;;;7.00;85.00;;;;;;4900887;29;20536;-80
2024/01/05 05:46:18;;;;;;;0.10;0.10;;;7.10;85.30;;;;;;4899633;29;20060;-80
2024/01/05 05:48:44;;;;;;;0.10;0.10;;;7.20;85.20;;;;;;4889394;29;20114;-82
2024/01/05 05:51:11;;;;;;;0.10;0.10;;;7.20;85.10;;;;;;4939258;29;20030;-79
2024/01/05 05:53:36;;;;;;;0.10;0.10;;;7.20;85.10;;;;;;4923542;29;20501;-80
2024/01/05 05:56:03;;;;;;;0.10;0.10;;;7.20;85.30;;;;;;4900069;29;20032;-79
2024/01/05 05:58:29;;;;;;;0.10;0.10;;;7.20;85.20;;;;;;4884310;29;20088;-79
2024/01/05 06:00:55;;;;;;;0.10;0.10;;;7.20;85.30;;;;;;4911853;29;20040;-79
2024/01/05 06:03:22;;;;;;;0.10;0.10;;;7.20;85.20;;;;;;4902486;29;20055;-78
2024/01/05 06:05:48;;;;;;;0.10;0.10;;;7.20;85.20;;;;;;4917940;29;20024;-77
2024/01/05 06:08:14;;;;;;;0.10;0.10;;;7.20;85.10;;;;;;4900861;29;20028;-79
2024/01/05 06:10:40;;;;;;;0.10;0.10;;;7.20;85.10;;;;;;4901160;29;20036;-79
2024/01/05 06:13:05;;;;;;;0.10;0.10;;;7.20;85.20;;;;;;4901072;29;20377;-78
2024/01/05 06:15:31;;;;;;;0.10;0.10;;;7.20;85.20;;;;;;4901569;29;20116;-78
2024/01/05 06:17:57;;;;;;;0.10;0.10;;;7.20;85.30;;;;;;4900832;29;20053;-80
2024/01/05 06:20:23;;;;;;;0.10;0.10;;;7.20;85.30;;;;;;4901268;29;20407;-78
2024/01/05 06:22:48;;;;;;;0.10;0.10;;;7.10;85.30;;;;;;4916404;29;20024;-79
2024/01/05 06:25:14;;;;;;;0.10;0.10;;;7.10;85.30;;;;;;4902425;29;20043;-78
2024/01/05 06:27:40;;;;;;;0.10;0.10;;;7.00;85.10;;;;;;4919233;29;20024;-78
2024/01/05 06:30:09;;;;;;;0.10;0.10;;;7.00;85.40;;;;;;4919867;29;20028;-79
2024/01/05 06:32:35;;;;;;;0.10;0.10;;;7.00;85.40;;;;;;4918542;29;20044;-78
2024/01/05 06:35:04;;;;;;;0.10;0.10;;;6.90;85.30;;;;;;4903283;29;20021;-77
2024/01/05 06:37:30;;;;;;;0.10;0.10;;;7.00;85.40;;;;;;4916998;29;20467;-78
2024/01/05 06:39:56;;;;;;;0.10;0.10;;;7.00;85.40;;;;;;4908495;29;20027;-78
2024/01/05 06:42:22;;;;;;;0.10;0.10;;;6.90;85.20;;;;;;4909934;29;20127;-77
2024/01/05 06:44:48;;;;;;;0.10;0.10;;;6.90;85.30;;;;;;4919720;29;20103;-79
2024/01/05 06:47:14;;;;;;;0.10;0.10;;;6.80;85.20;;;;;;4901560;29;20028;-79
2024/01/05 06:49:42;;;;;;;0.10;0.10;;;6.80;85.30;;;;;;4912324;29;20143;-84
2024/01/05 06:52:08;;;;;;;0.10;0.10;;;6.80;85.30;;;;;;4919120;29;20067;-79
2024/01/05 06:54:34;;;;;;;0.10;0.10;;;6.80;85.30;;;;;;4911209;29;22362;-78
2024/01/05 06:57:00;;;;;;;0.10;0.10;;;6.80;85.10;;;;;;4911929;29;20562;-79
2024/01/05 06:59:30;;;;;;;0.10;0.10;;;6.70;85.20;;;;;;4917686;29;20036;-79
2024/01/05 07:01:58;;;;;;;0.10;0.10;;;6.70;85.20;;;;;;4920639;29;20051;-80
2024/01/05 07:04:23;;;;;;;0.10;0.10;;;6.80;85.40;;;;;;4917101;29;20039;-80
2024/01/05 07:06:49;;;;;;;0.10;0.10;;;6.70;85.20;;;;;;4922472;29;20039;-79
2024/01/05 07:09:15;;;;;;;0.10;0.10;;;6.70;85.20;;;;;;4905520;29;20044;-79
2024/01/05 07:11:40;;;;;;;0.10;0.10;;;6.70;85.40;;;;;;4922744;29;20078;-79
2024/01/05 07:14:06;;;;;;;0.10;0.10;;;6.70;85.40;;;;;;4937236;29;20498;-79
2024/01/05 07:16:32;;;;;;;0.10;0.10;;;6.70;85.60;;;;;;4937506;29;20023;-79
2024/01/05 07:18:59;;;;;;;0.10;0.10;;;6.60;85.70;;;;;;4937673;29;20023;-79
2024/01/05 07:21:26;;;;;;;0.10;0.10;;;6.70;85.70;;;;;;4940607;29;20035;-80
2024/01/05 07:23:52;;;;;;;0.20;0.20;;;6.70;85.70;;;;;;4940439;29;20027;-79
2024/01/05 07:26:21;;;;;;;0.10;0.10;;;6.70;85.50;;;;;;4936088;29;20131;-79
2024/01/05 07:28:47;;;;;;;0.13;0.13;;;6.60;85.60;;;;;;4917947;29;20016;-79
2024/01/05 07:31:12;;;;;;;0.10;0.10;;;6.60;85.70;;;;;;4934481;29;20395;-79
2024/01/05 07:33:39;;;;;;;0.10;0.10;;;6.60;85.60;;;;;;4924079;29;20032;-79
2024/01/05 07:36:05;;;;;;;0.10;0.10;;;6.70;85.80;;;;;;4931907;29;20032;-79
2024/01/05 07:38:37;;;;;;;0.10;0.10;;;6.60;85.70;;;;;;4922924;29;20031;-76
2024/01/05 07:41:03;;;;;;;0.10;0.10;;;6.60;85.60;;;;;;4940630;29;20141;-77
2024/01/05 07:43:30;;;;;;;0.10;0.10;;;6.60;85.70;;;;;;4922305;29;20036;-77
2024/01/05 07:45:56;;;;;;;0.10;0.10;;;6.50;85.70;;;;;;4914191;29;20033;-80
2024/01/05 07:48:22;;;;;;;0.10;0.10;;;6.50;85.70;;;;;;4902337;29;20528;-78
2024/01/05 07:50:48;;;;;;;0.10;0.10;;;6.50;85.80;;;;;;4903046;29;20423;-79
2024/01/05 07:53:14;;;;;;;0.10;0.10;;;6.50;85.90;;;;;;4916688;29;20035;-84
2024/01/05 07:55:39;;;;;;;0.10;0.10;;;6.50;85.80;;;;;;4917380;29;20458;-80
2024/01/05 07:58:05;;;;;;;0.10;0.10;;;6.50;85.90;;;;;;4920335;29;20032;-80
2024/01/05 08:00:33;;;;;;;0.10;0.10;;;6.50;85.90;;;;;;4920012;29;20032;-80
2024/01/05 08:03:01;;;;;;;0.10;0.10;;;6.50;85.90;;;;;;4920520;29;20581;-79
2024/01/05 08:05:27;;;;;;;0.10;0.10;;;6.50;85.90;;;;;;4920216;29;20109;-82
2024/01/05 08:07:52;;;;;;;0.10;0.10;;;6.50;85.90;;;;;;4917535;29;20052;-79
2024/01/05 08:10:18;;;;;;;0.10;0.10;;;6.50;85.80;;;;;;4920109;29;20024;-80
2024/01/05 08:12:43;;;;;;;0.10;0.10;;;6.50;85.80;;;;;;4919807;29;20119;-80
2024/01/05 08:15:09;;;;;;;0.10;0.10;;;6.50;86.00;;;;;;4919325;29;20028;-82
2024/01/05 08:17:35;;;;;;;0.10;0.10;;;6.50;85.80;;;;;;4920219;29;20028;-82
2024/01/05 08:20:01;;;;;;;0.20;0.20;;;6.40;86.00;;;;;;4902663;29;20087;-82
2024/01/05 08:22:26;;;;;;;0.10;0.10;;;6.40;86.00;;;;;;4920090;29;20028;-82
2024/01/05 08:24:52;;;;;;;0.10;0.10;;;6.50;86.10;;;;;;4917455;29;20106;-82
2024/01/05 08:27:18;;;;;;;0.10;0.10;;;6.50;86.10;;;;;;4920061;29;20032;-85
2024/01/05 08:29:43;;;;;;;0.10;0.10;;;6.50;86.10;;;;;;4919678;29;20080;-76
2024/01/05 08:32:09;;;;;;;0.10;0.10;;;6.50;86.10;;;;;;4913982;29;20063;-76
2024/01/05 08:34:34;;;;;;;0.10;0.10;;;6.50;86.10;;;;;;4915174;29;20044;-76
2024/01/05 08:37:00;;;;;;;0.10;0.10;;;6.50;85.90;;;;;;4918639;29;20043;-76
2024/01/05 08:39:26;;;;;;;0.10;0.10;;;6.50;85.80;;;;;;4901702;29;20444;-76
2024/01/05 08:41:51;;;;;;;0.10;0.10;;;6.50;85.90;;;;;;4902198;29;20082;-76
2024/01/05 08:44:18;;;;;;;0.10;0.10;;;6.60;86.10;;;;;;4919605;29;20100;-76
2024/01/05 08:46:43;;;;;;;0.10;0.10;;;6.50;86.00;;;;;;4901374;29;20031;-76
2024/01/05 08:49:09;;;;;;;0.13;0.13;;;6.50;86.10;;;;;;4900802;29;20028;-76
2024/01/05 08:51:43;;;;;;;0.10;0.10;;;6.60;86.00;;;;;;4918074;29;20024;-76
2024/01/05 08:54:10;;;;;;;0.10;0.10;;;6.60;86.00;;;;;;4914729;29;20557;-76
2024/01/05 08:56:37;;;;;;;0.10;0.10;;;6.70;86.10;;;;;;4919174;29;20027;-76
2024/01/05 08:59:04;;;;;;;0.10;0.10;;;6.70;86.00;;;;;;4916153;29;20032;-79
2024/01/05 09:01:32;;;;;;;0.10;0.10;;;6.70;86.10;;;;;;4919128;29;20016;-76
2024/01/05 09:03:58;;;;;;;0.10;0.10;;;6.70;86.10;;;;;;4918975;29;20020;-76
2024/01/05 09:06:23;;;;;;;0.10;0.10;;;6.80;85.90;;;;;;4901437;29;20024;-76
2024/01/05 09:08:49;;;;;;;0.10;0.10;;;6.80;85.90;;;;;;4919457;29;20399;-76
2024/01/05 09:11:15;;;;;;;0.10;0.10;;;6.80;85.90;;;;;;4919683;29;20092;-76
2024/01/05 09:13:41;;;;;;;0.10;0.10;;;6.80;85.90;;;;;;4902465;29;20060;-76
2024/01/05 09:16:07;;;;;;;0.20;0.20;;;6.90;85.90;;;;;;4902320;29;20028;-76
2024/01/05 09:18:35;;;;;;;0.13;0.13;;;6.90;86.00;;;;;;4901740;29;20495;-76
2024/01/05 09:21:02;;;;;;;0.10;0.10;;;7.00;85.90;;;;;;4919840;29;20036;-75
2024/01/05 09:23:28;;;;;;;0.10;0.10;;;7.20;85.70;;;;;;4915236;29;20095;-76
2024/01/05 09:25:53;;;;;;;0.10;0.10;;;7.40;85.10;;;;;;4915318;29;20072;-77
2024/01/05 09:28:19;;;;;;;0.10;0.10;;;7.40;84.90;;;;;;4919755;29;20028;-75
2024/01/05 09:30:45;;;;;;;0.10;0.10;;;7.40;84.90;;;;;;4902085;29;20533;-76
2024/01/05 09:33:10;;;;;;;0.10;0.10;;;7.30;84.90;;;;;;4916553;29;20491;-76
2024/01/05 09:35:36;;;;;;;0.10;0.10;;;7.30;85.10;;;;;;4917755;29;20112;-76
2024/01/05 09:38:02;;;;;;;0.10;0.10;;;7.30;85.10;;;;;;4917525;29;20036;-76
2024/01/05 09:40:28;;;;;;;0.10;0.10;;;7.30;85.00;;;;;;4925706;29;20027;-76
2024/01/05 09:42:57;;;;;;;0.10;0.10;;;7.40;85.10;;;;;;4932630;29;20522;-76
2024/01/05 09:45:24;;;;;;;0.10;0.10;;;7.40;85.00;;;;;;4907809;29;20020;-76
2024/01/05 09:47:51;;;;;;;0.10;0.10;;;7.50;85.10;;;;;;4919110;29;20028;-76
2024/01/05 09:50:17;;;;;;;0.10;0.10;;;7.50;85.10;;;;;;4917852;29;20044;-79
2024/01/05 09:52:44;;;;;;;0.10;0.10;;;7.60;84.90;;;;;;4930117;29;20032;-78
2024/01/05 09:55:11;;;;;;;0.10;0.10;;;7.60;84.80;;;;;;4916312;29;20032;-78
2024/01/05 09:57:40;;;;;;;0.10;0.10;;;7.70;84.90;;;;;;4908811;29;20480;-79
2024/01/05 10:00:08;;;;;;;0.10;0.10;;;7.70;84.70;;;;;;4909894;29;20032;-75
2024/01/05 10:02:41;;;;;;;0.10;0.10;;;7.80;84.70;;;;;;4917366;29;20958;-76
2024/01/05 10:05:08;;;;;;;0.17;0.17;;;7.80;84.60;;;;;;4914137;29;20025;-76
2024/01/05 10:07:43;;;;;;;0.10;0.10;;;7.90;84.50;;;;;;4910237;29;20032;-76
2024/01/05 10:10:11;;;;;;;0.10;0.10;;;8.00;84.40;;;;;;4916380;29;20954;-77
2024/01/05 10:12:37;;;;;;;0.10;0.10;;;8.00;84.30;;;;;;4917818;29;20043;-76
2024/01/05 10:15:06;;;;;;;0.10;0.10;;;8.20;84.20;;;;;;4911430;29;20038;-76
2024/01/05 10:17:35;;;;;;;0.10;0.10;;;8.20;84.10;;;;;;4914844;29;20036;-78
2024/01/05 10:20:15;;;;;;;0.10;0.10;;;8.20;83.80;;;;;;4918421;29;20411;-83
2024/01/05 10:22:42;;;;;;;0.10;0.10;;;8.30;83.70;;;;;;4917561;29;20087;-76
2024/01/05 10:25:16;;;;;;;0.10;0.10;;;8.30;83.50;;;;;;4914813;29;20491;-76
2024/01/05 10:27:43;;;;;;;0.13;0.13;;;8.30;83.60;;;;;;4913134;29;20126;-76
2024/01/05 10:30:10;;;;;;;0.10;0.10;;;8.40;83.50;;;;;;4901040;29;20017;-79
2024/01/05 10:32:36;;;;;;;0.10;0.10;;;8.40;83.60;;;;;;4897066;29;20036;-76
2024/01/05 10:35:03;;;;;;;0.10;0.10;;;8.50;83.50;;;;;;4916685;29;20139;-76
2024/01/05 10:37:29;;;;;;;0.10;0.10;;;8.50;83.30;;;;;;4915657;29;20039;-76
2024/01/05 10:39:56;;;;;;;0.10;0.10;;;8.60;83.30;;;;;;4915492;29;20028;-76
2024/01/05 10:42:27;;;;;;;0.10;0.10;;;8.60;83.10;;;;;;4917482;29;20039;-76
2024/01/05 10:44:54;;;;;;;0.10;0.10;;;8.70;82.90;;;;;;4913131;29;20183;-76
2024/01/05 10:47:26;;;;;;;0.10;0.10;;;8.70;82.80;;;;;;4900547;29;20032;-76
2024/01/05 10:49:55;;;;;;;0.10;0.10;;;8.80;82.70;;;;;;4915806;29;20108;-76
2024/01/05 10:52:26;;;;;;;0.10;0.10;;;8.80;82.50;;;;;;4916413;29;20028;-76
2024/01/05 10:54:52;;;;;;;0.10;0.10;;;8.90;82.50;;;;;;4917146;29;20069;-76
2024/01/05 10:57:20;;;;;;;0.10;0.10;;;8.90;82.30;;;;;;4899725;29;20068;-76
2024/01/05 10:59:47;;;;;;;0.10;0.10;;;9.00;82.30;;;;;;4917064;29;20874;-76
2024/01/05 11:02:15;;;;;;;0.10;0.10;;;9.00;82.10;;;;;;4917228;29;20091;-76
2024/01/05 11:04:44;;;;;;;0.10;0.10;;;9.10;82.10;;;;;;4909173;29;20032;-76
2024/01/05 11:07:18;;;;;;;0.10;0.10;;;9.10;82.10;;;;;;4915746;29;20038;-76
2024/01/05 11:10:05;;;;;;;0.10;0.10;;;9.20;81.90;;;;;;4915794;29;20031;-76
2024/01/05 11:12:49;;;;;;;0.10;0.10;;;9.20;81.70;;;;;;4914263;29;20029;-76
2024/01/05 11:15:24;;;;;;;0.10;0.10;;;9.30;81.40;;;;;;4914672;29;20032;-76
2024/01/05 11:18:08;;;;;;;0.17;0.17;;;9.30;81.30;;;;;;4911399;29;20035;-76
2024/01/05 11:21:07;;;;;;;0.10;0.10;;;9.30;81.20;;;;;;4914641;29;20153;-76
2024/01/05 11:23:34;;;;;;;0.10;0.10;;;9.40;80.90;;;;;;4895270;29;20044;-76
2024/01/05 11:26:00;;;;;;;0.10;0.10;;;9.40;80.60;;;;;;4914871;29;20043;-76
2024/01/05 11:28:36;;;;;;;0.10;0.10;;;9.50;80.70;;;;;;4895782;29;20032;-76
2024/01/05 11:31:02;;;;;;;0.10;0.10;;;9.60;80.80;;;;;;4912442;29;20052;-76
2024/01/05 11:33:56;;;;;;;0.10;0.10;;;9.60;80.40;;;;;;4899713;29;20064;-76
2024/01/05 11:36:50;;;;;;;0.10;0.10;;;9.70;80.20;;;;;;4911339;29;20147;-76
2024/01/05 11:39:53;;;;;;;0.10;0.10;;;9.70;80.10;;;;;;4914696;29;20035;-77
2024/01/05 11:42:25;;;;;;;0.10;0.10;;;9.70;80.10;;;;;;4873005;29;20041;-76
2024/01/05 11:44:56;;;;;;;0.10;0.10;;;9.70;80.20;;;;;;4888487;29;20115;-76
2024/01/05 11:47:37;;;;;;;0.10;0.10;;;9.80;79.90;;;;;;4913362;29;20043;-76
2024/01/05 11:50:28;;;;;;;0.10;0.10;;;9.80;80.10;;;;;;4919338;29;20661;-76
2024/01/05 11:53:15;;;;;;;0.10;0.10;;;9.80;79.80;;;;;;4899245;29;20040;-76
2024/01/05 11:55:56;;;;;;;0.10;0.10;;;9.90;79.80;;;;;;4917466;29;20040;-76
2024/01/05 11:58:25;;;;;;;0.10;0.10;;;10.00;79.50;;;;;;4914710;29;20039;-76
2024/01/05 12:00:55;;;;;;;0.10;0.10;;;10.00;79.60;;;;;;4902164;29;20032;-76
2024/01/05 12:03:24;;;;;;;0.10;0.10;;;10.10;79.20;;;;;;4919719;29;20032;-76
2024/01/05 12:05:55;;;;;;;0.10;0.10;;;10.10;79.00;;;;;;4902375;29;20103;-77
2024/01/05 12:08:22;;;;;;;0.10;0.10;;;10.20;78.70;;;;;;4920575;29;20020;-76
2024/01/05 12:10:55;;;;;;;0.10;0.10;;;10.20;78.60;;;;;;4910514;29;20032;-76
2024/01/05 12:13:23;;;;;;;0.10;0.10;;;10.20;78.30;;;;;;4902395;29;20035;-76
2024/01/05 12:15:52;;;;;;;0.10;0.10;;;10.30;78.40;;;;;;4919614;29;20040;-76
2024/01/05 12:18:18;;;;;;;0.10;0.10;;;10.30;78.50;;;;;;4919314;29;20119;-76
2024/01/05 12:20:44;;;;;;;0.10;0.10;;;10.30;78.20;;;;;;4901922;29;20068;-76
2024/01/05 12:23:12;;;;;;;0.10;0.10;;;10.30;77.80;;;;;;4916129;29;20032;-76
2024/01/05 12:25:39;;;;;;;0.10;0.10;;;10.40;77.70;;;;;;4918378;29;20040;-76
2024/01/05 12:28:05;;;;;;;0.10;0.10;;;10.40;78.20;;;;;;4919366;29;20028;-76
2024/01/05 12:30:31;;;;;;;0.10;0.10;;;10.40;78.20;;;;;;4915612;29;20436;-76
2024/01/05 12:32:57;;;;;;;0.10;0.10;;;10.50;78.20;;;;;;4902371;29;20483;-75
2024/01/05 12:35:22;;;;;;;0.10;0.10;;;10.50;77.60;;;;;;4916103;29;20075;-78
2024/01/05 12:37:54;;;;;;;0.10;0.10;;;10.50;77.00;;;;;;4920692;29;20032;-79
2024/01/05 12:40:26;;;;;;;0.10;0.10;;;10.60;76.70;;;;;;4925939;29;20418;-78
2024/01/05 12:42:52;;;;;;;0.10;0.10;;;10.60;76.80;;;;;;4903546;29;20036;-76
2024/01/05 12:45:22;;;;;;;0.10;0.10;;;10.70;76.40;;;;;;4917388;29;20119;-76
2024/01/05 12:47:49;;;;;;;0.10;0.10;;;10.70;76.00;;;;;;4902400;29;20550;-77
2024/01/05 12:50:29;;;;;;;0.10;0.10;;;10.80;75.90;;;;;;4899602;29;20024;-78
2024/01/05 12:52:55;;;;;;;0.10;0.10;;;10.80;76.00;;;;;;4917736;29;20028;-78
2024/01/05 12:55:31;;;;;;;0.10;0.10;;;10.80;75.90;;;;;;4917156;29;20040;-78
2024/01/05 12:58:04;;;;;;;0.10;0.10;;;10.80;75.60;;;;;;4901365;29;20058;-79
2024/01/05 13:00:44;;;;;;;0.10;0.10;;;10.80;75.80;;;;;;4916142;29;20036;-78
2024/01/05 13:03:19;;;;;;;0.10;0.10;;;10.80;75.00;;;;;;4897782;29;20047;-78
2024/01/05 13:05:46;;;;;;;0.10;0.10;;;10.80;75.30;;;;;;4915394;29;20553;-78
2024/01/05 13:08:13;;;;;;;0.10;0.10;;;10.80;75.00;;;;;;4902312;29;20032;-78
2024/01/05 13:10:39;;;;;;;0.10;0.10;;;10.80;75.20;;;;;;4900069;29;20025;-78
2024/01/05 13:13:05;;;;;;;0.10;0.10;;;10.80;75.00;;;;;;4900664;29;20191;-78
2024/01/05 13:15:32;;;;;;;0.10;0.10;;;10.70;75.20;;;;;;4901722;29;20059;-78
2024/01/05 13:17:59;;;;;;;0.10;0.10;;;10.70;75.40;;;;;;4914841;29;20021;-78
2024/01/05 13:20:25;;;;;;;0.10;0.10;;;10.80;75.60;;;;;;4899803;29;20027;-85
2024/01/05 13:22:53;;;;;;;0.10;0.10;;;10.80;75.40;;;;;;4912104;29;20055;-82
2024/01/05 13:25:19;;;;;;;0.10;0.10;;;10.80;75.40;;;;;;4898532;29;20115;-82
2024/01/05 13:27:46;;;;;;;0.10;0.10;;;10.90;75.00;;;;;;4913809;29;20115;-81
2024/01/05 13:30:15;;;;;;;0.10;0.10;;;10.90;75.00;;;;;;4917109;29;20030;-84
2024/01/05 13:32:51;;;;;;;0.10;0.10;;;10.90;75.30;;;;;;4898448;29;20059;-84
2024/01/05 13:35:17;;;;;;;0.10;0.10;;;10.90;75.10;;;;;;4888364;29;20499;-78
2024/01/05 13:37:48;;;;;;;0.10;0.10;;;10.90;75.30;;;;;;4917002;29;20059;-78
2024/01/05 13:40:14;;;;;;;0.10;0.10;;;10.90;75.40;;;;;;4914993;29;20024;-79
2024/01/05 13:42:40;;;;;;;0.10;0.10;;;10.80;75.50;;;;;;4917101;29;20111;-78
2024/01/05 13:45:06;;;;;;;0.10;0.10;;;10.80;75.70;;;;;;4899836;29;20111;-78
2024/01/05 13:47:33;;;;;;;0.10;0.10;;;10.80;75.60;;;;;;4916745;29;20031;-78
2024/01/05 13:49:59;;;;;;;0.10;0.10;;;10.80;75.60;;;;;;4917070;29;20145;-78
2024/01/05 13:52:25;;;;;;;0.10;0.10;;;10.80;75.90;;;;;;4916195;29;20044;-77
2024/01/05 13:54:51;;;;;;;0.03;0.03;;;10.80;76.00;;;;;;4916426;29;20024;-78
2024/01/05 13:57:16;;;;;;;0.10;0.10;;;10.80;75.90;;;;;;4916116;29;20031;-78
2024/01/05 13:59:42;;;;;;;0.10;0.10;;;10.70;76.30;;;;;;4917048;29;20047;-79
2024/01/05 14:02:08;;;;;;;0.10;0.10;;;10.70;75.90;;;;;;4914614;29;20043;-78
2024/01/05 14:04:33;;;;;;;0.10;0.10;;;10.70;76.20;;;;;;4915096;29;20963;-79
2024/01/05 14:07:00;;;;;;;0.10;0.10;;;10.80;76.30;;;;;;4916826;29;20036;-79
2024/01/05 14:09:25;;;;;;;0.10;0.10;;;10.80;76.00;;;;;;4899932;29;20031;-79
2024/01/05 14:11:51;;;;;;;0.10;0.10;;;10.80;76.00;;;;;;4912419;29;20487;-79
2024/01/05 14:14:17;;;;;;;0.10;0.10;;;10.70;75.70;;;;;;4895959;29;20024;-78
2024/01/05 14:16:42;;;;;;;0.10;0.10;;;10.60;75.20;;;;;;4899427;29;20127;-79
2024/01/05 14:19:08;;;;;;;0.10;0.10;;;10.40;75.20;;;;;;4915099;29;20028;-79
2024/01/05 14:21:34;;;;;;;0.10;0.10;;;10.30;74.80;;;;;;4916571;29;20052;-79
2024/01/05 14:24:01;;;;;;;0.10;0.10;;;10.30;75.20;;;;;;4899469;29;20036;-79
2024/01/05 14:26:27;;;;;;;0.10;0.10;;;10.30;75.30;;;;;;4899810;29;20028;-79
2024/01/05 14:28:53;;;;;;;0.10;0.10;;;10.30;75.20;;;;;;4915054;29;20031;-79
2024/01/05 14:31:24;;;;;;;0.10;0.10;;;10.50;75.30;;;;;;4916320;29;20044;-80
2024/01/05 14:33:49;;;;;;;0.10;0.10;;;10.70;75.00;;;;;;4915365;29;20030;-79
2024/01/05 14:36:15;;;;;;;0.10;0.10;;;10.70;75.00;;;;;;4917303;29;20036;-79
2024/01/05 14:38:41;;;;;;;0.10;0.10;;;10.60;74.90;;;;;;4917187;29;20036;-79
2024/01/05 14:41:06;;;;;;;0.10;0.10;;;10.60;74.90;;;;;;4916186;29;20376;-79
2024/01/05 14:43:34;;;;;;;0.10;0.10;;;10.50;75.50;;;;;;4917362;29;20112;-79
2024/01/05 14:45:59;;;;;;;0.10;0.10;;;10.40;75.40;;;;;;4894478;29;20036;-79
2024/01/05 14:48:28;;;;;;;0.10;0.10;;;10.40;75.80;;;;;;4908268;29;20565;-80
2024/01/05 14:50:54;;;;;;;0.10;0.10;;;10.30;76.00;;;;;;4916460;29;20027;-79
2024/01/05 14:53:20;;;;;;;0.10;0.10;;;10.30;76.10;;;;;;4917216;29;20036;-80
2024/01/05 14:55:45;;;;;;;0.10;0.10;;;10.30;76.30;;;;;;4916051;29;20043;-79
2024/01/05 14:58:11;;;;;;;0.10;0.10;;;10.30;76.30;;;;;;4915976;29;20369;-79
2024/01/05 15:00:37;;;;;;;0.10;0.10;;;10.30;76.40;;;;;;4914322;29;20024;-78
2024/01/05 15:03:03;;;;;;;0.10;0.10;;;10.40;76.30;;;;;;4912400;29;20036;-78
2024/01/05 15:05:30;;;;;;;0.10;0.10;;;10.50;76.20;;;;;;4881194;29;20024;-79
2024/01/05 15:07:55;;;;;;;0.03;0.03;;;10.50;76.20;;;;;;4913425;29;20016;-79
2024/01/05 15:10:22;;;;;;;0.00;0.00;;;10.50;76.10;;;;;;4915621;29;20031;-80
2024/01/05 15:12:50;;;;;;;0.10;0.10;;;10.40;76.10;;;;;;4913867;29;20581;-79
2024/01/05 15:15:16;;;;;;;0.10;0.10;;;10.30;76.30;;;;;;4914716;29;20434;-79
2024/01/05 15:17:42;;;;;;;0.10;0.10;;;10.20;76.60;;;;;;4913304;29;20032;-79
2024/01/05 15:20:11;;;;;;;0.10;0.10;;;10.10;76.80;;;;;;4913693;29;20039;-79
2024/01/05 15:22:36;;;;;;;0.10;0.10;;;10.00;77.30;;;;;;4915464;29;20566;-79
2024/01/05 15:25:02;;;;;;;0.10;0.10;;;9.90;77.70;;;;;;4903486;29;20040;-79
2024/01/05 15:27:28;;;;;;;0.10;0.10;;;9.80;77.50;;;;;;4917704;29;20529;-79
2024/01/05 15:29:54;;;;;;;0.10;0.10;;;9.90;77.70;;;;;;4903138;29;20032;-79
2024/01/05 15:32:19;;;;;;;0.10;0.10;;;9.90;77.90;;;;;;4886017;29;20056;-79
2024/01/05 15:34:46;;;;;;;0.10;0.10;;;9.90;78.00;;;;;;4896201;29;20039;-79
2024/01/05 15:37:11;;;;;;;0.10;0.10;;;9.90;77.90;;;;;;4915042;29;20029;-79
2024/01/05 15:39:40;;;;;;;0.10;0.10;;;10.00;78.00;;;;;;4903292;29;20055;-79
2024/01/05 15:42:06;;;;;;;0.10;0.10;;;10.00;78.40;;;;;;4916408;29;20036;-79
2024/01/05 15:44:32;;;;;;;0.10;0.10;;;10.00;79.00;;;;;;4909729;29;20040;-79
2024/01/05 15:46:57;;;;;;;0.10;0.10;;;10.00;79.50;;;;;;4897000;29;20028;-79
2024/01/05 15:49:24;;;;;;;0.10;0.10;;;10.00;80.20;;;;;;4919448;29;20468;-79
2024/01/05 15:51:52;;;;;;;0.10;0.10;;;9.90;80.40;;;;;;4919194;29;20062;-79
2024/01/05 15:54:18;;;;;;;0.10;0.10;;;9.90;80.50;;;;;;4915757;29;20078;-79
2024/01/05 15:56:44;;;;;;;0.10;0.10;;;10.00;80.80;;;;;;4919734;29;20021;-79
2024/01/05 15:59:09;;;;;;;0.10;0.10;;;9.90;80.90;;;;;;4918841;29;20032;-79
2024/01/05 16:01:35;;;;;;;0.10;0.10;;;9.90;80.90;;;;;;4916225;29;20032;-79
2024/01/05 16:04:01;;;;;;;0.10;0.10;;;9.90;80.90;;;;;;4898350;29;20670;-79
2024/01/05 16:06:27;;;;;;;0.00;0.00;;;9.80;81.00;;;;;;4902353;29;20036;-79
2024/01/05 16:08:53;;;;;;;0.10;0.10;;;9.70;81.00;;;;;;4902081;29;20390;-79
2024/01/05 16:11:26;;;;;;;0.10;0.10;;;9.60;81.10;;;;;;4919917;29;20392;-80
2024/01/05 16:13:52;;;;;;;0.10;0.10;;;9.50;81.30;;;;;;4917740;29;20115;-80
2024/01/05 16:16:17;;;;;;;0.10;0.10;;;9.40;81.40;;;;;;4902691;29;20079;-80
2024/01/05 16:18:44;;;;;;;0.10;0.10;;;9.30;81.60;;;;;;4920129;29;20035;-79
2024/01/05 16:21:10;;;;;;;0.10;0.10;;;9.30;81.70;;;;;;4918964;29;20388;-80
2024/01/05 16:23:39;;;;;;;0.00;0.00;;;9.20;81.80;;;;;;4903620;29;20091;-84
2024/01/05 16:26:08;;;;;;;0.10;0.10;;;9.10;82.00;;;;;;4911691;29;20024;-81
2024/01/05 16:28:34;;;;;;;0.10;0.10;;;9.10;82.20;;;;;;4915305;29;20032;-81
2024/01/05 16:31:00;;;;;;;0.10;0.10;;;9.00;82.30;;;;;;4903885;29;20044;-82
2024/01/05 16:33:29;;;;;;;0.10;0.10;;;8.90;82.60;;;;;;4917106;29;20737;-81
2024/01/05 16:35:55;;;;;;;0.10;0.10;;;8.90;82.60;;;;;;4916200;29;20032;-81
2024/01/05 16:38:21;;;;;;;0.10;0.10;;;8.90;82.60;;;;;;4914346;29;20044;-77
2024/01/05 16:40:47;;;;;;;0.10;0.10;;;8.90;82.50;;;;;;4917716;29;20028;-77
2024/01/05 16:43:13;;;;;;;0.10;0.10;;;8.90;82.50;;;;;;4916714;29;20028;-81
2024/01/05 16:45:38;;;;;;;0.10;0.10;;;8.90;82.50;;;;;;4915702;29;20578;-76
2024/01/05 16:48:04;;;;;;;0.10;0.10;;;8.80;82.60;;;;;;4918214;29;20509;-75
2024/01/05 16:50:31;;;;;;;0.10;0.10;;;8.80;83.00;;;;;;4918346;29;20028;-76
2024/01/05 16:52:57;;;;;;;0.10;0.10;;;8.80;83.00;;;;;;4917579;29;20032;-76
2024/01/05 16:55:23;;;;;;;0.10;0.10;;;8.70;82.90;;;;;;4915300;29;20095;-77
2024/01/05 16:57:49;;;;;;;0.10;0.10;;;8.70;83.10;;;;;;4918254;29;20031;-76
2024/01/05 17:00:15;;;;;;;0.10;0.10;;;8.70;83.20;;;;;;4916600;29;20043;-76
2024/01/05 17:02:40;;;;;;;0.10;0.10;;;8.70;83.40;;;;;;4912802;29;20046;-76
2024/01/05 17:05:06;;;;;;;0.10;0.10;;;8.80;83.30;;;;;;4911610;29;20107;-76
2024/01/05 17:07:32;;;;;;;0.10;0.10;;;8.80;83.20;;;;;;4916150;29;20055;-76
2024/01/05 17:09:57;;;;;;;0.10;0.10;;;8.80;83.30;;;;;;4914774;29;20028;-77
2024/01/05 17:12:23;;;;;;;0.10;0.10;;;8.70;83.10;;;;;;4912518;29;20047;-78
2024/01/05 17:14:49;;;;;;;0.10;0.10;;;8.70;83.10;;;;;;4918264;29;20036;-79
2024/01/05 17:17:14;;;;;;;0.10;0.10;;;8.70;83.20;;;;;;4916913;29;20067;-75
2024/01/05 17:19:40;;;;;;;0.10;0.10;;;8.60;83.20;;;;;;4915413;29;20059;-77
2024/01/05 17:22:06;;;;;;;0.10;0.10;;;8.60;83.40;;;;;;4916239;29;20032;-77
2024/01/05 17:24:31;;;;;;;0.10;0.10;;;8.60;83.40;;;;;;4914745;29;20031;-77
2024/01/05 17:26:57;;;;;;;0.10;0.10;;;8.70;83.40;;;;;;4918177;29;20032;-77
2024/01/05 17:29:23;;;;;;;0.10;0.10;;;8.70;83.20;;;;;;4915259;29;20038;-77
2024/01/05 17:31:48;;;;;;;0.10;0.10;;;8.70;83.10;;;;;;4915565;29;20054;-77
2024/01/05 17:34:14;;;;;;;0.10;0.10;;;8.70;82.80;;;;;;4917042;29;20119;-77
2024/01/05 17:36:41;;;;;;;0.10;0.10;;;8.70;82.60;;;;;;4918068;29;20027;-77
2024/01/05 17:39:07;;;;;;;0.10;0.10;;;8.70;82.70;;;;;;4911239;29;20012;-77
2024/01/05 17:41:34;;;;;;;0.10;0.10;;;8.70;82.70;;;;;;4909953;29;20490;-77
2024/01/05 17:44:00;;;;;;;0.03;0.03;;;8.70;82.80;;;;;;4913084;29;20027;-77
2024/01/05 17:46:25;;;;;;;0.10;0.10;;;8.70;82.80;;;;;;4917601;29;20059;-77
2024/01/05 17:48:51;;;;;;;0.10;0.10;;;8.70;82.90;;;;;;4911531;29;20068;-77
2024/01/05 17:51:17;;;;;;;0.10;0.10;;;8.70;83.00;;;;;;4918822;23;20098;-76
2024/01/05 17:53:43;;;;;;;0.03;0.03;;;8.60;82.90;;;;;;4941562;29;20070;-75
2024/01/05 17:56:22;;;;;;;0.10;0.10;;;8.60;82.90;;;;;;4948888;29;20118;-76
2024/01/05 17:58:48;;;;;;;0.10;0.10;;;8.60;83.10;;;;;;4931552;29;20027;-77
2024/01/05 18:01:13;;;;;;;0.10;0.10;;;8.50;83.10;;;;;;4946069;29;20055;-79
2024/01/05 18:03:40;;;;;;;0.10;0.10;;;8.40;83.10;;;;;;4947137;29;20075;-77
2024/01/05 18:06:09;;;;;;;0.10;0.10;;;8.40;83.30;;;;;;4948332;29;20035;-79
2024/01/05 18:08:34;;;;;;;0.10;0.10;;;8.40;83.40;;;;;;4946679;29;20028;-84
2024/01/05 18:11:00;;;;;;;0.10;0.10;;;8.30;83.40;;;;;;4935885;29;20030;-79
2024/01/05 18:13:26;;;;;;;0.10;0.10;;;8.40;83.50;;;;;;4937893;29;20023;-77
2024/01/05 18:15:51;;;;;;;0.10;0.10;;;8.40;83.30;;;;;;4928692;29;20037;-77
2024/01/05 18:18:17;;;;;;;0.10;0.10;;;8.40;83.50;;;;;;4956035;29;20059;-76
2024/01/05 18:20:43;;;;;;;0.10;0.10;;;8.30;83.20;;;;;;4957467;29;20058;-76
2024/01/05 18:23:08;;;;;;;0.10;0.10;;;8.30;83.40;;;;;;4957325;29;20090;-75
2024/01/05 18:25:36;;;;;;;0.10;0.10;;;8.30;83.40;;;;;;4949480;29;20085;-75
2024/01/05 18:28:05;;;;;;;0.10;0.10;;;8.30;83.40;;;;;;4953963;29;20066;-75